createdAt,value
2018-04-24T00:00:04.705Z,5.20
2018-04-24T00:01:04.502Z,9.70
2018-04-24T00:02:04.525Z,4.40
2018-04-24T00:03:04.355Z,7.80
2018-04-24T00:04:04.352Z,6.50
2018-04-24T00:05:04.190Z,5.20
2018-04-24T00:06:04.225Z,5.90
2018-04-24T00:07:04.024Z,5.70
2018-04-24T00:08:04.040Z,5.70
2018-04-24T00:09:03.884Z,5.60
2018-04-24T00:10:03.853Z,4.60
2018-04-24T00:11:03.717Z,6.10
2018-04-24T00:12:03.757Z,6.30
2018-04-24T00:13:03.552Z,4.10
2018-04-24T00:14:03.598Z,6.10
2018-04-24T00:15:03.410Z,9.50
2018-04-24T00:16:03.381Z,4.50
2018-04-24T00:17:03.248Z,7.80
2018-04-24T00:18:03.284Z,8.90
2018-04-24T00:19:03.098Z,5.60
2018-04-24T00:20:03.103Z,4.50
2018-04-24T00:21:02.965Z,4.80
2018-04-24T00:22:02.906Z,5.30
2018-04-24T00:23:02.784Z,4.70
2018-04-24T00:24:02.748Z,6.60
2018-04-24T00:25:02.618Z,5.90
2018-04-24T00:26:02.643Z,4.50
2018-04-24T00:27:02.452Z,3.90
2018-04-24T00:28:02.433Z,7.20
2018-04-24T00:29:02.326Z,5.90
2018-04-24T00:30:02.338Z,6.40
2018-04-24T00:31:02.149Z,5.60
2018-04-24T00:32:02.148Z,5.10
2018-04-24T00:33:02.007Z,6.90
2018-04-24T00:34:01.989Z,5.50
2018-04-24T00:35:01.832Z,4.30
2018-04-24T00:36:01.769Z,3.80
2018-04-24T00:37:01.662Z,6.20
2018-04-24T00:38:01.676Z,4.60
2018-04-24T00:39:01.525Z,4.20
2018-04-24T00:40:01.484Z,5.50
2018-04-24T00:41:01.341Z,4.60
2018-04-24T00:42:01.297Z,6.90
2018-04-24T00:43:01.218Z,5.70
2018-04-24T00:44:01.214Z,5.50
2018-04-24T00:45:01.042Z,6.20
2018-04-24T00:47:43.246Z,6.40
2018-04-24T00:50:25.283Z,5.50
2018-04-24T00:51:25.220Z,4.30
2018-04-24T00:52:25.112Z,6.30
2018-04-24T00:53:25.127Z,4.80
2018-04-24T00:54:24.941Z,6.30
2018-04-24T00:55:24.930Z,7.10
2018-04-24T00:56:24.777Z,5.80
2018-04-24T00:57:24.776Z,7.00
2018-04-24T00:58:24.616Z,8.10
2018-04-24T00:59:24.650Z,6.00
2018-04-24T01:00:24.455Z,4.00
2018-04-24T01:01:24.469Z,5.70
2018-04-24T01:03:48.760Z,5.30
2018-04-24T01:04:48.751Z,5.50
2018-04-24T01:05:48.597Z,6.40
2018-04-24T01:08:30.800Z,4.70
2018-04-24T01:11:33.851Z,4.80
2018-04-24T01:12:33.696Z,8.00
2018-04-24T01:13:33.665Z,7.60
2018-04-24T01:14:33.526Z,5.70
2018-04-24T01:15:33.564Z,5.00
2018-04-24T01:16:33.375Z,6.10
2018-04-24T01:17:33.413Z,5.30
2018-04-24T01:18:33.222Z,7.60
2018-04-24T01:19:33.187Z,5.60
2018-04-24T01:20:33.058Z,6.20
2018-04-24T01:21:33.099Z,5.30
2018-04-24T01:22:32.898Z,5.40
2018-04-24T01:23:33.960Z,7.00
2018-04-24T01:24:32.728Z,5.80
2018-04-24T01:27:14.773Z,5.70
2018-04-24T01:28:14.740Z,5.90
2018-04-24T01:29:14.607Z,7.40
2018-04-24T01:30:14.618Z,5.10
2018-04-24T01:31:14.444Z,4.80
2018-04-24T01:32:14.428Z,5.10
2018-04-24T01:33:14.332Z,6.00
2018-04-24T01:34:14.235Z,4.30
2018-04-24T01:35:14.132Z,4.90
2018-04-24T01:36:14.152Z,6.20
2018-04-24T01:37:13.969Z,6.70
2018-04-24T01:38:13.984Z,4.50
2018-04-24T01:39:13.841Z,4.50
2018-04-24T01:41:55.770Z,5.80
2018-04-24T01:42:55.769Z,5.50
2018-04-24T01:43:55.629Z,7.00
2018-04-24T01:44:55.667Z,6.10
2018-04-24T01:45:55.445Z,5.60
2018-04-24T01:46:55.480Z,7.30
2018-04-24T01:47:55.295Z,5.00
2018-04-24T01:48:55.333Z,6.30
2018-04-24T01:49:55.130Z,7.70
2018-04-24T01:52:37.265Z,6.70
2018-04-24T01:53:37.308Z,6.00
2018-04-24T01:54:37.127Z,7.20
2018-04-24T02:20:59.123Z,7.20
2018-04-24T02:21:58.978Z,6.10
2018-04-24T02:22:58.999Z,3.50
2018-04-24T02:23:58.811Z,5.80
2018-04-24T02:24:58.892Z,6.30
2018-04-24T02:25:58.654Z,5.30
2018-04-24T02:26:58.607Z,7.00
2018-04-24T02:27:58.501Z,6.50
2018-04-24T02:28:58.528Z,5.90
2018-04-24T02:29:58.356Z,7.30
2018-04-24T02:30:58.332Z,5.50
2018-04-24T02:31:58.187Z,7.10
2018-04-24T02:32:58.134Z,6.10
2018-04-24T02:33:58.024Z,5.70
2018-04-24T02:34:58.091Z,7.50
2018-04-24T02:35:57.898Z,7.50
2018-04-24T02:36:57.868Z,8.00
2018-04-24T02:37:57.699Z,7.60
2018-04-24T02:38:57.671Z,6.20
2018-04-24T02:39:57.578Z,5.60
2018-04-24T02:42:39.769Z,5.40
2018-04-24T02:43:39.879Z,7.40
2018-04-24T02:44:39.643Z,5.70
2018-04-24T02:45:40.139Z,6.30
2018-04-24T02:46:39.465Z,8.10
2018-04-24T02:49:21.277Z,7.10
2018-04-24T02:50:21.334Z,7.70
2018-04-24T02:51:21.110Z,5.20
2018-04-24T02:52:21.102Z,7.30
2018-04-24T02:53:20.962Z,5.50
2018-04-24T02:54:20.905Z,6.10
2018-04-24T02:55:20.824Z,5.40
2018-04-24T02:56:20.850Z,6.70
2018-04-24T02:57:20.641Z,7.30
2018-04-24T02:58:20.634Z,5.90
2018-04-24T02:59:20.492Z,7.20
2018-04-24T03:00:20.434Z,5.70
2018-04-24T03:01:20.335Z,5.80
2018-04-24T03:02:20.349Z,5.20
2018-04-24T03:03:20.163Z,4.30
2018-04-24T03:04:20.161Z,7.60
2018-04-24T03:05:20.010Z,9.80
2018-04-24T03:06:20.102Z,7.80
2018-04-24T03:07:19.882Z,6.20
2018-04-24T03:08:19.871Z,6.60
2018-04-24T03:09:19.679Z,6.30
2018-04-24T03:10:19.681Z,5.70
2018-04-24T03:11:19.544Z,5.90
2018-04-24T03:12:19.482Z,6.00
2018-04-24T03:13:19.360Z,10.10
2018-04-24T03:16:01.280Z,5.00
2018-04-24T03:17:02.255Z,5.50
2018-04-24T03:18:01.118Z,5.70
2018-04-24T03:19:01.096Z,7.60
2018-04-24T03:20:00.961Z,6.70
2018-04-24T03:21:01.055Z,6.10
2018-04-24T03:22:00.800Z,6.40
2018-04-24T03:23:00.863Z,5.70
2018-04-24T03:24:00.639Z,6.40
2018-04-24T03:25:00.633Z,7.20
2018-04-24T03:26:00.510Z,6.30
2018-04-24T03:27:01.524Z,5.00
2018-04-24T03:28:00.325Z,7.30
2018-04-24T03:29:00.374Z,6.80
2018-04-24T03:30:00.176Z,5.70
2018-04-24T03:31:00.158Z,5.30
2018-04-24T03:32:00.032Z,7.10
2018-04-24T03:32:59.964Z,9.00
2018-04-24T03:33:59.839Z,7.10
2018-04-24T03:34:59.881Z,6.80
2018-04-24T03:35:59.695Z,5.30
2018-04-24T03:37:00.742Z,5.00
2018-04-24T03:37:59.526Z,8.30
2018-04-24T03:38:59.497Z,6.80
2018-04-24T03:39:59.368Z,8.50
2018-04-24T03:40:59.400Z,6.40
2018-04-24T03:41:59.234Z,5.60
2018-04-24T03:42:59.209Z,7.90
2018-04-24T03:43:59.048Z,7.40
2018-04-24T03:44:59.021Z,6.30
2018-04-24T03:45:58.892Z,5.60
2018-04-24T03:46:58.932Z,6.80
2018-04-24T03:47:58.741Z,9.30
2018-04-24T03:48:58.736Z,7.70
2018-04-24T03:49:58.566Z,7.50
2018-04-24T03:50:58.548Z,6.70
2018-04-24T03:51:58.403Z,7.10
2018-04-24T03:52:58.392Z,7.30
2018-04-24T03:53:58.250Z,7.20
2018-04-24T03:54:58.288Z,7.40
2018-04-24T03:55:58.094Z,8.40
2018-04-24T03:56:58.078Z,6.20
2018-04-24T03:57:57.946Z,8.60
2018-04-24T03:58:57.890Z,8.60
2018-04-24T03:59:57.771Z,5.90
2018-04-24T04:01:46.869Z,6.40
2018-04-24T04:01:57.709Z,7.10
2018-04-24T04:02:57.570Z,9.80
2018-04-24T04:05:39.789Z,9.80
2018-04-24T04:06:39.820Z,6.30
2018-04-24T04:07:39.653Z,6.10
2018-04-24T04:08:39.623Z,7.40
2018-04-24T04:09:39.470Z,6.10
2018-04-24T04:10:39.428Z,6.20
2018-04-24T04:11:39.319Z,7.70
2018-04-24T04:12:39.377Z,9.10
2018-04-24T04:13:39.161Z,7.40
2018-04-24T04:14:39.157Z,10.30
2018-04-24T04:15:38.992Z,6.90
2018-04-24T04:18:21.316Z,7.00
2018-04-24T04:19:21.263Z,7.90
2018-04-24T04:20:21.143Z,7.20
2018-04-24T04:21:21.177Z,7.40
2018-04-24T04:22:21.001Z,8.10
2018-04-24T04:46:42.503Z,7.00
2018-04-24T04:47:42.441Z,8.40
2018-04-24T04:48:42.334Z,7.20
2018-04-24T04:49:42.358Z,6.50
2018-04-24T04:50:42.177Z,11.10
2018-04-24T04:51:42.164Z,7.40
2018-04-24T04:52:41.999Z,5.90
2018-04-24T04:55:24.330Z,8.60
2018-04-24T04:56:45.279Z,7.60
2018-04-24T04:57:24.153Z,7.10
2018-04-24T04:58:24.194Z,7.00
2018-04-24T04:59:24.023Z,6.40
2018-04-24T05:00:23.993Z,8.20
2018-04-24T05:01:23.856Z,7.90
2018-04-24T05:02:23.830Z,7.50
2018-04-24T05:03:23.666Z,6.60
2018-04-24T05:04:23.604Z,7.70
2018-04-24T05:05:23.503Z,6.80
2018-04-24T05:06:23.551Z,7.00
2018-04-24T05:07:23.340Z,6.30
2018-04-24T05:08:23.340Z,5.40
2018-04-24T05:09:23.184Z,5.40
2018-04-24T05:12:05.405Z,7.40
2018-04-24T05:13:05.340Z,5.80
2018-04-24T05:14:05.142Z,5.80
2018-04-24T05:16:47.350Z,6.70
2018-04-24T05:19:29.304Z,5.20
2018-04-24T05:20:29.352Z,7.50
2018-04-24T05:21:29.163Z,4.40
2018-04-24T05:22:29.183Z,5.90
2018-04-24T05:23:28.987Z,6.00
2018-04-24T05:24:28.979Z,6.10
2018-04-24T05:25:28.831Z,7.00
2018-04-24T05:28:10.830Z,8.50
2018-04-24T05:29:31.711Z,5.70
2018-04-24T05:30:10.651Z,6.40
2018-04-24T05:31:10.692Z,7.80
2018-04-24T05:32:10.504Z,6.60
2018-04-24T05:33:10.537Z,6.00
2018-04-24T05:34:10.335Z,9.70
2018-04-24T05:35:10.300Z,7.60
2018-04-24T05:36:10.186Z,8.30
2018-04-24T05:37:10.216Z,6.30
2018-04-24T05:38:10.033Z,7.20
2018-04-24T05:39:10.041Z,6.90
2018-04-24T05:40:09.857Z,5.10
2018-04-24T05:41:09.818Z,8.00
2018-04-24T05:42:09.720Z,7.00
2018-04-24T05:43:09.781Z,7.60
2018-04-24T05:44:09.541Z,10.80
2018-04-24T05:45:09.548Z,8.70
2018-04-24T05:46:09.376Z,7.50
2018-04-24T05:47:09.354Z,8.50
2018-04-24T05:48:09.254Z,5.40
2018-04-24T05:49:09.203Z,5.80
2018-04-24T05:50:09.064Z,5.60
2018-04-24T05:51:09.073Z,7.70
2018-04-24T05:52:08.911Z,5.30
2018-04-24T05:53:08.878Z,7.20
2018-04-24T05:54:08.789Z,8.90
2018-04-24T05:55:08.812Z,8.10
2018-04-24T05:56:08.589Z,7.70
2018-04-24T05:57:08.600Z,8.50
2018-04-24T05:58:08.456Z,8.60
2018-04-24T05:59:08.424Z,6.80
2018-04-24T06:00:08.286Z,7.90
2018-04-24T06:01:08.320Z,10.50
2018-04-24T06:02:08.126Z,6.70
2018-04-24T06:03:08.278Z,7.60
2018-04-24T06:04:07.946Z,8.40
2018-04-24T06:05:07.965Z,6.50
2018-04-24T06:06:07.788Z,6.70
2018-04-24T06:08:49.874Z,7.50
2018-04-24T06:09:49.844Z,5.70
2018-04-24T06:10:49.660Z,6.40
2018-04-24T06:11:49.653Z,8.90
2018-04-24T06:12:49.508Z,6.60
2018-04-24T06:13:49.502Z,6.50
2018-04-24T06:14:49.355Z,9.30
2018-04-24T06:15:49.364Z,5.20
2018-04-24T06:16:49.187Z,7.30
2018-04-24T06:17:49.173Z,7.30
2018-04-24T06:18:49.049Z,5.50
2018-04-24T06:19:48.992Z,6.60
2018-04-24T06:20:48.865Z,6.50
2018-04-24T06:21:48.899Z,20.30
2018-04-24T06:22:48.715Z,15.80
2018-04-24T06:23:48.701Z,6.20
2018-04-24T06:24:48.622Z,6.90
2018-04-24T06:25:48.555Z,5.50
2018-04-24T06:26:48.394Z,8.10
2018-04-24T06:29:30.352Z,6.30
2018-04-24T06:30:30.318Z,4.60
2018-04-24T06:31:30.166Z,5.30
2018-04-24T06:32:30.136Z,7.00
2018-04-24T06:33:30.008Z,4.50
2018-04-24T06:34:30.036Z,5.80
2018-04-24T06:35:29.878Z,6.30
2018-04-24T06:36:29.861Z,6.50
2018-04-24T06:37:29.695Z,5.60
2018-04-24T06:38:29.652Z,9.70
2018-04-24T06:39:29.536Z,6.20
2018-04-24T06:40:29.501Z,6.60
2018-04-24T06:41:29.409Z,6.80
2018-04-24T06:42:29.373Z,9.30
2018-04-24T06:43:29.206Z,6.30
2018-04-24T06:44:29.183Z,6.70
2018-04-24T06:45:29.065Z,10.10
2018-04-24T06:46:30.052Z,7.20
2018-04-24T06:47:28.921Z,8.30
2018-04-24T06:48:28.933Z,5.60
2018-04-24T06:49:28.771Z,8.00
2018-04-24T06:50:28.708Z,4.40
2018-04-24T06:51:28.608Z,7.00
2018-04-24T06:54:10.847Z,6.90
2018-04-24T06:55:10.817Z,8.30
2018-04-24T06:56:10.719Z,7.90
2018-04-24T06:57:10.622Z,7.00
2018-04-24T06:58:10.532Z,6.30
2018-04-24T06:59:10.546Z,6.40
2018-04-24T07:00:10.372Z,6.20
2018-04-24T07:01:10.351Z,5.80
2018-04-24T07:02:10.220Z,6.90
2018-04-24T07:03:10.167Z,7.40
2018-04-24T07:04:10.067Z,7.60
2018-04-24T07:06:52.368Z,9.40
2018-04-24T07:07:52.333Z,6.50
2018-04-24T07:08:52.170Z,6.90
2018-04-24T07:09:52.199Z,5.20
2018-04-24T07:10:52.015Z,8.80
2018-04-24T07:11:51.998Z,7.10
2018-04-24T07:12:51.888Z,10.70
2018-04-24T07:13:51.912Z,8.30
2018-04-24T07:14:51.707Z,7.70
2018-04-24T07:17:33.830Z,6.90
2018-04-24T07:18:33.862Z,6.90
2018-04-24T07:19:33.683Z,7.00
2018-04-24T07:20:33.737Z,7.00
2018-04-24T07:21:33.521Z,7.00
2018-04-24T07:22:33.611Z,5.90
2018-04-24T07:23:33.380Z,6.00
2018-04-24T07:24:33.357Z,6.60
2018-04-24T07:25:33.232Z,9.70
2018-04-24T07:26:33.250Z,7.10
2018-04-24T07:27:33.072Z,7.10
2018-04-24T07:28:33.110Z,7.40
2018-04-24T07:29:32.892Z,7.00
2018-04-24T07:32:01.917Z,7.30
2018-04-24T07:32:02.443Z,6.80
2018-04-24T07:33:02.408Z,6.00
2018-04-24T07:34:02.305Z,8.10
2018-04-24T07:35:02.286Z,5.20
2018-04-24T07:36:02.104Z,7.30
2018-04-24T07:37:02.108Z,5.60
2018-04-24T07:38:02.000Z,6.20
2018-04-24T07:39:02.002Z,6.80
2018-04-24T07:40:01.808Z,6.00
2018-04-24T07:41:02.171Z,7.10
2018-04-24T07:42:01.673Z,7.60
2018-04-24T07:44:43.962Z,10.00
2018-04-24T07:45:43.820Z,6.90
2018-04-24T07:46:43.771Z,6.10
2018-04-24T07:47:43.635Z,7.80
2018-04-24T07:48:43.532Z,7.20
2018-04-24T07:49:43.583Z,8.30
2018-04-24T07:50:43.360Z,7.90
2018-04-24T07:53:25.382Z,8.50
2018-04-24T07:54:25.355Z,8.80
2018-04-24T07:55:25.197Z,5.90
2018-04-24T07:56:25.147Z,6.90
2018-04-24T07:57:25.040Z,9.00
2018-04-24T07:58:25.067Z,8.10
2018-04-24T07:59:24.925Z,10.50
2018-04-24T08:00:24.884Z,6.90
2018-04-24T08:01:24.706Z,7.10
2018-04-24T08:04:06.955Z,8.60
2018-04-24T08:05:06.885Z,5.40
2018-04-24T08:06:06.706Z,9.50
2018-04-24T08:07:06.731Z,9.00
2018-04-24T08:08:06.599Z,7.70
2018-04-24T08:09:06.500Z,5.60
2018-04-24T08:10:06.387Z,5.30
2018-04-24T08:11:06.420Z,7.60
2018-04-24T08:12:06.211Z,5.70
2018-04-24T08:13:06.218Z,7.30
2018-04-24T08:14:06.071Z,9.50
2018-04-24T08:15:06.038Z,11.50
2018-04-24T08:16:05.902Z,10.10
2018-04-24T08:17:05.943Z,12.30
2018-04-24T08:18:05.746Z,8.20
2018-04-24T08:20:47.871Z,8.10
2018-04-24T08:21:47.866Z,8.80
2018-04-24T08:22:47.728Z,9.40
2018-04-24T08:23:47.657Z,9.00
2018-04-24T08:24:47.532Z,8.50
2018-04-24T08:25:47.617Z,7.20
2018-04-24T08:26:47.393Z,6.70
2018-04-24T08:27:47.378Z,8.40
2018-04-24T08:28:47.216Z,8.10
2018-04-24T08:29:47.197Z,11.50
2018-04-24T08:30:47.081Z,10.90
2018-04-24T08:31:47.135Z,9.60
2018-04-24T08:32:46.910Z,10.30
2018-04-24T08:33:46.919Z,8.20
2018-04-24T08:34:46.754Z,8.70
2018-04-24T08:35:46.720Z,9.50
2018-04-24T08:36:46.604Z,10.00
2018-04-24T08:37:46.616Z,6.30
2018-04-24T08:38:46.435Z,7.70
2018-04-24T08:39:46.440Z,7.80
2018-04-24T08:40:46.291Z,9.00
2018-04-24T08:41:46.244Z,7.80
2018-04-24T08:42:46.142Z,9.30
2018-04-24T08:43:46.169Z,11.60
2018-04-24T08:44:45.951Z,10.80
2018-04-24T08:45:45.959Z,9.30
2018-04-24T08:46:45.817Z,9.40
2018-04-24T08:47:46.857Z,8.90
2018-04-24T08:48:45.647Z,11.10
2018-04-24T08:49:45.678Z,7.30
2018-04-24T08:50:45.508Z,10.40
2018-04-24T08:51:45.488Z,9.70
2018-04-24T08:52:45.376Z,10.40
2018-04-24T08:53:45.329Z,9.00
2018-04-24T08:54:45.174Z,9.00
2018-04-24T08:55:45.207Z,9.10
2018-04-24T08:56:45.034Z,9.70
2018-04-24T08:57:45.087Z,7.90
2018-04-24T08:58:44.862Z,10.00
2018-04-24T08:59:44.883Z,7.20
2018-04-24T09:00:44.711Z,6.30
2018-04-24T09:01:44.736Z,9.20
2018-04-24T09:02:44.572Z,9.20
2018-04-24T09:03:44.587Z,8.30
2018-04-24T09:04:44.392Z,11.00
2018-04-24T09:05:44.353Z,8.20
2018-04-24T09:06:44.235Z,10.80
2018-04-24T09:07:44.294Z,10.40
2018-04-24T09:08:44.124Z,12.00
2018-04-24T09:09:44.088Z,12.20
2018-04-24T09:10:43.929Z,9.70
2018-04-24T09:11:43.887Z,8.60
2018-04-24T09:12:43.749Z,9.80
2018-04-24T09:13:43.833Z,9.10
2018-04-24T09:14:43.605Z,13.50
2018-04-24T09:15:43.606Z,12.20
2018-04-24T09:16:43.440Z,14.00
2018-04-24T09:17:43.399Z,12.40
2018-04-24T09:18:43.275Z,11.40
2018-04-24T09:19:43.267Z,12.60
2018-04-24T09:20:43.139Z,11.60
2018-04-24T09:21:43.120Z,11.10
2018-04-24T09:22:42.956Z,11.30
2018-04-24T09:23:42.899Z,9.30
2018-04-24T09:24:42.825Z,10.10
2018-04-24T09:25:42.794Z,11.30
2018-04-24T09:26:42.643Z,11.70
2018-04-24T09:27:42.671Z,13.40
2018-04-24T09:28:42.553Z,9.10
2018-04-24T09:29:42.511Z,9.40
2018-04-24T09:30:42.329Z,9.40
2018-04-24T09:31:42.377Z,11.70
2018-04-24T09:32:42.172Z,11.00
2018-04-24T09:33:42.149Z,14.20
2018-04-24T09:34:42.157Z,10.70
2018-04-24T09:35:41.993Z,12.50
2018-04-24T09:36:41.850Z,10.10
2018-04-24T09:37:41.897Z,9.30
2018-04-24T09:38:41.693Z,9.50
2018-04-24T09:39:41.654Z,14.10
2018-04-24T09:40:41.589Z,9.80
2018-04-24T09:41:41.531Z,11.10
2018-04-24T09:42:41.386Z,13.80
2018-04-24T09:43:41.377Z,12.00
2018-04-24T09:44:41.224Z,10.70
2018-04-24T09:45:41.273Z,8.30
2018-04-24T09:46:41.066Z,11.90
2018-04-24T09:47:41.116Z,10.40
2018-04-24T09:48:40.924Z,9.90
2018-04-24T09:49:40.961Z,14.00
2018-04-24T09:50:40.775Z,10.50
2018-04-24T09:53:22.875Z,13.10
2018-04-24T09:54:22.809Z,11.90
2018-04-24T09:55:22.757Z,10.30
2018-04-24T09:56:22.844Z,10.90
2018-04-24T09:57:23.032Z,11.60
2018-04-24T09:58:22.491Z,11.10
2018-04-24T09:59:22.392Z,12.90
2018-04-24T10:00:23.456Z,9.50
2018-04-24T10:01:22.269Z,12.70
2018-04-24T10:02:22.247Z,12.40
2018-04-24T10:03:22.099Z,9.00
2018-04-24T10:04:22.112Z,12.00
2018-04-24T10:05:21.934Z,10.20
2018-04-24T10:06:21.872Z,8.60
2018-04-24T10:07:21.770Z,13.20
2018-04-24T10:08:21.754Z,14.10
2018-04-24T10:09:21.608Z,12.00
2018-04-24T10:10:21.650Z,9.90
2018-04-24T10:11:21.497Z,10.50
2018-04-24T10:12:21.386Z,8.80
2018-04-24T10:13:21.347Z,10.60
2018-04-24T10:14:21.263Z,10.90
2018-04-24T10:15:21.135Z,8.50
2018-04-24T10:16:21.182Z,8.60
2018-04-24T10:17:21.003Z,7.40
2018-04-24T10:18:20.969Z,8.40
2018-04-24T10:19:20.830Z,9.30
2018-04-24T10:20:20.783Z,8.40
2018-04-24T10:21:20.665Z,11.20
2018-04-24T10:22:20.743Z,9.60
2018-04-24T10:23:20.507Z,12.10
2018-04-24T10:24:20.515Z,9.50
2018-04-24T10:25:20.365Z,7.70
2018-04-24T10:26:20.341Z,7.90
2018-04-24T10:27:20.285Z,9.70
2018-04-24T10:28:20.211Z,10.80
2018-04-24T10:29:20.025Z,10.60
2018-04-24T10:30:20.029Z,10.30
2018-04-24T10:31:19.927Z,9.50
2018-04-24T10:32:19.868Z,11.00
2018-04-24T10:33:19.748Z,10.40
2018-04-24T10:34:19.763Z,10.50
2018-04-24T10:35:19.559Z,9.60
2018-04-24T10:38:01.402Z,10.40
2018-04-24T10:39:01.311Z,12.20
2018-04-24T10:40:01.217Z,10.00
2018-04-24T10:41:01.267Z,13.40
2018-04-24T10:42:01.076Z,11.70
2018-04-24T10:43:01.100Z,11.80
2018-04-24T10:44:00.912Z,11.60
2018-04-24T10:45:00.876Z,12.60
2018-04-24T10:46:00.750Z,11.50
2018-04-24T10:47:00.808Z,11.40
2018-04-24T10:48:00.635Z,9.20
2018-04-24T10:49:00.601Z,10.20
2018-04-24T10:50:00.484Z,10.80
2018-04-24T10:51:00.397Z,10.50
2018-04-24T10:52:00.305Z,8.80
2018-04-24T10:53:00.310Z,11.90
2018-04-24T10:54:00.159Z,15.10
2018-04-24T10:55:00.047Z,9.80
2018-04-24T10:56:00.048Z,8.20
2018-04-24T10:58:41.929Z,10.20
2018-04-24T10:59:41.927Z,11.10
2018-04-24T11:00:41.755Z,10.60
2018-04-24T11:01:41.664Z,8.50
2018-04-24T11:02:41.585Z,11.30
2018-04-24T11:03:41.521Z,12.10
2018-04-24T11:04:41.434Z,14.10
2018-04-24T11:05:41.453Z,10.10
2018-04-24T11:06:41.341Z,8.70
2018-04-24T11:07:41.260Z,9.80
2018-04-24T11:08:41.118Z,10.40
2018-04-24T11:09:41.101Z,10.50
2018-04-24T11:10:40.947Z,10.30
2018-04-24T11:11:41.009Z,11.30
2018-04-24T11:12:40.883Z,10.70
2018-04-24T11:15:22.937Z,10.40
2018-04-24T11:18:04.905Z,9.00
2018-04-24T11:19:04.887Z,11.40
2018-04-24T11:20:04.762Z,10.80
2018-04-24T11:21:05.764Z,9.80
2018-04-24T11:22:04.594Z,11.60
2018-04-24T11:23:04.616Z,8.10
2018-04-24T11:24:04.439Z,11.60
2018-04-24T11:25:05.368Z,7.80
2018-04-24T11:26:04.276Z,8.70
2018-04-24T11:27:04.233Z,10.30
2018-04-24T11:28:04.100Z,9.20
2018-04-24T11:29:04.137Z,9.30
2018-04-24T11:30:03.996Z,9.70
2018-04-24T11:31:03.949Z,14.20
2018-04-24T11:32:03.794Z,10.80
2018-04-24T11:33:03.749Z,9.80
2018-04-24T11:34:03.721Z,8.40
2018-04-24T11:35:03.666Z,10.60
2018-04-24T11:36:03.622Z,10.10
2018-04-24T11:37:03.467Z,9.10
2018-04-24T11:38:03.354Z,9.50
2018-04-24T11:39:03.279Z,9.00
2018-04-24T11:40:03.209Z,10.30
2018-04-24T11:41:03.235Z,7.20
2018-04-24T11:42:03.011Z,12.40
2018-04-24T11:43:03.008Z,12.00
2018-04-24T11:44:02.888Z,9.00
2018-04-24T11:45:02.798Z,13.70
2018-04-24T11:46:02.714Z,13.90
2018-04-24T11:47:02.719Z,8.80
2018-04-24T11:48:02.547Z,10.90
2018-04-24T11:49:02.522Z,11.10
2018-04-24T11:50:02.408Z,10.40
2018-04-24T11:51:02.333Z,11.50
2018-04-24T11:52:02.257Z,10.30
2018-04-24T11:53:02.300Z,12.90
2018-04-24T11:54:02.090Z,11.20
2018-04-24T11:55:02.060Z,11.20
2018-04-24T11:56:01.937Z,8.30
2018-04-24T11:57:01.988Z,7.80
2018-04-24T11:58:01.773Z,7.40
2018-04-24T11:59:01.686Z,8.10
2018-04-24T12:00:01.627Z,9.90
2018-04-24T12:01:01.545Z,11.70
2018-04-24T12:02:01.469Z,10.70
2018-04-24T12:03:01.495Z,10.60
2018-04-24T12:04:01.293Z,11.00
2018-04-24T12:05:01.313Z,9.20
2018-04-24T12:06:01.154Z,10.40
2018-04-24T12:07:02.286Z,11.40
2018-04-24T12:08:00.974Z,9.60
2018-04-24T12:09:01.028Z,10.00
2018-04-24T12:10:00.894Z,10.20
2018-04-24T12:11:00.833Z,6.90
2018-04-24T12:12:00.700Z,10.40
2018-04-24T12:13:00.644Z,7.50
2018-04-24T12:14:00.503Z,11.60
2018-04-24T12:16:42.410Z,10.10
2018-04-24T12:17:43.359Z,7.70
2018-04-24T12:18:42.257Z,10.70
2018-04-24T12:21:24.408Z,8.50
2018-04-24T12:22:25.395Z,11.10
2018-04-24T12:23:24.249Z,9.30
2018-04-24T12:24:24.248Z,13.10
2018-04-24T12:25:24.091Z,11.40
2018-04-24T12:26:24.167Z,10.50
2018-04-24T12:27:23.968Z,10.40
2018-04-24T12:28:24.402Z,9.10
2018-04-24T12:29:23.790Z,10.20
2018-04-24T12:32:05.910Z,9.90
2018-04-24T12:33:05.957Z,10.10
2018-04-24T12:34:05.752Z,8.20
2018-04-24T12:35:05.795Z,9.60
2018-04-24T12:36:05.602Z,10.80
2018-04-24T12:38:47.964Z,10.00
2018-04-24T12:41:29.911Z,8.80
2018-04-24T12:44:11.942Z,10.20
2018-04-24T12:45:11.952Z,8.90
2018-04-24T12:46:11.756Z,11.60
2018-04-24T12:48:53.925Z,10.60
2018-04-24T12:49:53.928Z,8.50
2018-04-24T12:50:53.756Z,8.30
2018-04-24T12:51:53.758Z,8.80
2018-04-24T12:52:53.613Z,8.90
2018-04-24T12:53:53.696Z,10.60
2018-04-24T12:54:53.468Z,13.30
2018-04-24T12:55:53.445Z,10.20
2018-04-24T12:56:53.299Z,10.40
2018-04-24T12:59:35.484Z,8.80
2018-04-24T13:00:35.453Z,13.00
2018-04-24T13:01:35.309Z,11.10
2018-04-24T13:02:35.259Z,9.90
2018-04-24T13:03:35.119Z,12.60
2018-04-24T13:04:35.172Z,11.90
2018-04-24T13:05:34.970Z,9.30
2018-04-24T13:06:34.997Z,9.00
2018-04-24T13:07:34.796Z,9.60
2018-04-24T13:10:16.949Z,11.70
2018-04-24T13:11:16.904Z,9.20
2018-04-24T13:12:16.781Z,9.90
2018-04-24T13:13:16.807Z,10.60
2018-04-24T13:14:16.632Z,9.80
2018-04-24T13:15:16.653Z,9.30
2018-04-24T13:16:16.459Z,10.50
2018-04-24T13:17:16.412Z,11.10
2018-04-24T13:18:16.305Z,11.30
2018-04-24T13:19:16.360Z,11.30
2018-04-24T13:20:16.187Z,12.50
2018-04-24T13:22:58.449Z,12.20
2018-04-24T13:23:58.475Z,10.20
2018-04-24T13:24:58.301Z,12.60
2018-04-24T13:25:58.248Z,11.20
2018-04-24T13:26:58.124Z,13.70
2018-04-24T13:27:58.163Z,10.20
2018-04-24T13:28:57.980Z,9.90
2018-04-24T13:29:58.025Z,10.10
2018-04-24T13:30:57.841Z,11.50
2018-04-24T13:33:39.944Z,10.70
2018-04-24T13:34:40.056Z,13.90
2018-04-24T13:35:39.811Z,11.80
2018-04-24T13:36:39.803Z,11.70
2018-04-24T13:37:39.638Z,11.30
2018-04-24T13:40:21.954Z,10.90
2018-04-24T13:41:21.950Z,14.90
2018-04-24T13:42:21.802Z,10.50
2018-04-24T13:43:21.811Z,11.30
2018-04-24T13:44:21.634Z,9.70
2018-04-24T13:45:21.664Z,9.70
2018-04-24T13:46:21.508Z,13.00
2018-04-24T13:47:21.435Z,10.40
2018-04-24T13:48:21.344Z,12.80
2018-04-24T13:49:21.344Z,11.40
2018-04-24T13:50:21.208Z,10.50
2018-04-24T13:51:21.163Z,12.70
2018-04-24T13:52:21.020Z,11.50
2018-04-24T13:53:21.061Z,13.20
2018-04-24T13:54:20.872Z,9.80
2018-04-24T13:55:21.994Z,9.40
2018-04-24T13:56:20.739Z,10.50
2018-04-24T13:57:20.635Z,10.10
2018-04-24T13:58:20.550Z,12.40
2018-04-24T13:59:20.585Z,14.40
2018-04-24T14:00:20.415Z,11.40
2018-04-24T14:01:20.472Z,9.70
2018-04-24T14:02:20.251Z,10.00
2018-04-24T14:03:20.223Z,9.90
2018-04-24T14:04:20.103Z,10.60
2018-04-24T14:07:01.986Z,9.90
2018-04-24T14:08:01.922Z,9.80
2018-04-24T14:09:01.790Z,9.50
2018-04-24T14:10:01.816Z,11.20
2018-04-24T14:11:01.679Z,9.80
2018-04-24T14:12:01.644Z,10.50
2018-04-24T14:13:01.487Z,11.60
2018-04-24T14:14:01.446Z,9.60
2018-04-24T14:15:01.329Z,9.40
2018-04-24T14:16:01.413Z,10.40
2018-04-24T14:17:01.183Z,10.90
2018-04-24T14:19:43.447Z,10.40
2018-04-24T14:20:43.453Z,12.60
2018-04-24T14:21:43.536Z,11.20
2018-04-24T14:22:43.309Z,10.90
2018-04-24T14:23:43.169Z,9.60
2018-04-24T14:24:43.180Z,10.20
2018-04-24T14:25:42.994Z,10.20
2018-04-24T14:26:43.053Z,12.00
2018-04-24T14:27:42.863Z,11.50
2018-04-24T14:28:42.793Z,11.60
2018-04-24T14:29:42.679Z,11.40
2018-04-24T14:30:42.708Z,10.40
2018-04-24T14:31:42.551Z,9.90
2018-04-24T14:34:24.456Z,11.30
2018-04-24T14:35:24.423Z,11.40
2018-04-24T14:36:24.456Z,10.60
2018-04-24T14:37:24.334Z,11.00
2018-04-24T14:38:24.139Z,12.50
2018-04-24T14:39:24.129Z,9.70
2018-04-24T14:40:23.995Z,9.60
2018-04-24T14:41:23.977Z,9.10
2018-04-24T14:42:23.858Z,11.40
2018-04-24T14:45:05.977Z,10.60
2018-04-24T14:46:05.958Z,10.40
2018-04-24T14:47:05.842Z,10.60
2018-04-24T14:48:05.756Z,10.60
2018-04-24T14:49:05.651Z,11.10
2018-04-24T14:50:05.696Z,11.60
2018-04-24T14:51:05.493Z,11.30
2018-04-24T14:52:05.543Z,10.00
2018-04-24T14:53:05.349Z,11.40
2018-04-24T14:54:05.390Z,10.70
2018-04-24T14:55:05.196Z,11.90
2018-04-24T14:56:05.200Z,12.40
2018-04-24T14:57:05.081Z,12.10
2018-04-24T14:58:04.981Z,11.60
2018-04-24T14:59:04.885Z,9.40
2018-04-24T15:00:04.841Z,11.50
2018-04-24T15:01:04.722Z,11.40
2018-04-24T15:02:04.807Z,10.10
2018-04-24T15:03:04.598Z,11.60
2018-04-24T15:04:04.524Z,10.00
2018-04-24T15:05:04.415Z,11.70
2018-04-24T15:06:04.437Z,10.30
2018-04-24T15:07:04.372Z,10.90
2018-04-24T15:08:04.291Z,10.70
2018-04-24T15:09:04.117Z,11.70
2018-04-24T15:10:04.074Z,12.80
2018-04-24T15:11:03.946Z,11.20
2018-04-24T15:12:03.905Z,12.80
2018-04-24T15:13:03.835Z,14.20
2018-04-24T15:14:03.750Z,10.30
2018-04-24T15:15:03.665Z,10.10
2018-04-24T15:17:45.468Z,10.10
2018-04-24T15:18:45.510Z,10.60
2018-04-24T15:19:45.316Z,10.20
2018-04-24T15:20:45.315Z,9.80